Time;durP1;ratioP1;P1;durP2;ratioP2;P2;SDS_P1;SDS_P2;PMS_P1;PMS_P2;Temp;Humidity;BMP_temperature;BMP_pressure;BME280_temperature;BME280_humidity;BME280_pressure;Samples;Min_cycle;Max_cycle;Signal;HPM_P1;HPM_P2
2022/04/29 00:00:17;;;;;;;10.30;8.05;;;26.40;99.90;;;;;;1873858;75;21031;-83
2022/04/29 00:02:51;;;;;;;10.55;7.95;;;26.40;99.90;;;;;;1866816;75;21197;-82
2022/04/29 00:05:21;;;;;;;10.75;7.83;;;26.50;99.90;;;;;;1864228;75;21036;-83
2022/04/29 00:07:53;;;;;;;11.12;7.65;;;26.50;99.60;;;;;;1877725;76;21054;-82
2022/04/29 00:10:25;;;;;;;15.10;8.00;;;26.60;99.60;;;;;;1892074;74;21224;-81
2022/04/29 00:12:56;;;;;;;9.78;7.70;;;26.60;99.20;;;;;;1892633;74;21059;-81
2022/04/29 00:15:27;;;;;;;11.55;7.90;;;26.60;99.20;;;;;;1889827;74;21197;-82
2022/04/29 00:17:58;;;;;;;11.63;8.08;;;26.60;98.90;;;;;;1887477;74;21079;-81
2022/04/29 00:20:30;;;;;;;10.05;8.55;;;26.60;98.80;;;;;;1894109;74;21077;-82
2022/04/29 00:23:01;;;;;;;11.78;8.15;;;26.60;98.80;;;;;;1893948;74;21280;-82
2022/04/29 00:25:32;;;;;;;10.78;8.05;;;26.50;99.30;;;;;;1892441;76;21187;-82
2022/04/29 00:28:04;;;;;;;12.20;8.35;;;26.60;98.90;;;;;;1890115;74;21472;-82
2022/04/29 00:30:35;;;;;;;10.95;8.65;;;26.60;98.70;;;;;;1851602;76;21084;-83
2022/04/29 00:33:07;;;;;;;13.00;9.00;;;26.60;98.90;;;;;;1865198;76;21108;-82
2022/04/29 00:35:38;;;;;;;11.12;9.40;;;26.60;98.90;;;;;;1893433;74;21065;-82
2022/04/29 00:38:15;;;;;;;12.53;9.18;;;26.50;98.90;;;;;;1889434;74;21140;-82
2022/04/29 00:40:41;;;;;;;12.50;8.70;;;26.50;98.60;;;;;;1889476;75;21181;-84
2022/04/29 00:43:12;;;;;;;13.40;9.43;;;26.50;99.00;;;;;;1894022;75;21115;-82
2022/04/29 00:45:43;;;;;;;12.28;9.05;;;26.50;99.00;;;;;;1894294;74;21048;-83
2022/04/29 00:48:14;;;;;;;12.63;9.43;;;26.50;98.90;;;;;;1896820;74;21305;-82
2022/04/29 00:51:07;;;;;;;13.83;9.35;;;26.50;98.90;;;;;;1760264;80;21225;-83
2022/04/29 00:53:39;;;;;;;14.13;9.08;;;26.50;98.80;;;;;;1734175;81;21251;-83
2022/04/29 00:56:12;;;;;;;11.93;8.75;;;26.50;98.90;;;;;;1763743;81;21169;-81
2022/04/29 00:58:52;;;;;;;14.35;10.13;;;26.60;98.50;;;;;;1763843;80;21122;-81
2022/04/29 01:01:34;;;;;;;12.23;9.20;;;26.70;98.50;;;;;;1753649;80;21165;-82
2022/04/29 01:04:20;;;;;;;14.05;9.70;;;26.80;98.00;;;;;;1744990;80;21128;-81
2022/04/29 01:06:43;;;;;;;10.93;8.88;;;26.80;98.10;;;;;;1763887;81;21185;-83
2022/04/29 01:09:13;;;;;;;14.85;8.95;;;26.80;98.00;;;;;;1763763;80;21326;-82
2022/04/29 01:11:46;;;;;;;13.98;8.93;;;26.90;97.80;;;;;;1750223;81;21629;-81
2022/04/29 01:14:27;;;;;;;10.45;9.20;;;27.00;97.90;;;;;;1757760;81;21283;-82
2022/04/29 01:16:51;;;;;;;17.98;9.63;;;27.10;97.40;;;;;;1757950;81;21199;-82
2022/04/29 01:19:22;;;;;;;16.15;9.00;;;27.10;97.20;;;;;;1751157;81;21736;-83
2022/04/29 01:21:54;;;;;;;11.05;9.00;;;27.10;97.20;;;;;;1744613;81;21212;-81
2022/04/29 01:24:43;;;;;;;13.18;8.83;;;27.20;96.80;;;;;;1749515;81;21131;-82
2022/04/29 01:27:02;;;;;;;11.95;9.23;;;27.20;96.70;;;;;;1747356;81;21126;-83
2022/04/29 01:29:34;;;;;;;10.82;8.73;;;27.30;96.60;;;;;;1855739;76;21163;-82
2022/04/29 01:32:06;;;;;;;11.95;8.43;;;27.40;96.30;;;;;;1867489;76;21525;-84
2022/04/29 01:34:38;;;;;;;11.05;8.85;;;27.40;96.10;;;;;;1859811;76;21074;-84
2022/04/29 01:37:09;;;;;;;12.78;8.85;;;27.50;95.90;;;;;;1862150;76;21169;-82
2022/04/29 01:39:42;;;;;;;14.63;9.28;;;27.50;96.40;;;;;;1867061;75;21193;-83
2022/04/29 01:42:16;;;;;;;11.80;9.05;;;27.50;95.90;;;;;;1872646;75;21590;-83
2022/04/29 01:44:48;;;;;;;14.47;8.78;;;27.50;95.60;;;;;;1873944;75;21113;-82
2022/04/29 01:47:19;;;;;;;12.00;10.13;;;27.40;95.40;;;;;;1871701;76;21052;-82
2022/04/29 01:49:50;;;;;;;13.78;9.38;;;27.40;95.90;;;;;;1867882;75;21202;-74
2022/04/29 01:52:22;;;;;;;12.68;9.00;;;27.40;96.00;;;;;;1873237;75;21183;-75
2022/04/29 01:54:53;;;;;;;12.37;8.83;;;27.50;95.90;;;;;;1867452;75;21112;-76
2022/04/29 01:57:24;;;;;;;10.68;8.43;;;27.60;96.00;;;;;;1870498;76;21135;-77
2022/04/29 01:59:55;;;;;;;14.05;9.10;;;27.60;95.70;;;;;;1859121;76;21138;-77
2022/04/29 02:02:26;;;;;;;12.33;8.58;;;27.70;94.90;;;;;;1869336;76;21051;-77
2022/04/29 02:04:58;;;;;;;14.65;9.00;;;27.80;94.60;;;;;;1856216;76;21578;-77
2022/04/29 02:07:30;;;;;;;10.23;8.35;;;27.90;94.10;;;;;;1869112;76;21144;-78
2022/04/29 02:10:01;;;;;;;11.20;8.38;;;27.90;93.30;;;;;;1873144;76;21237;-77
2022/04/29 02:12:34;;;;;;;13.62;8.75;;;27.90;93.50;;;;;;1874163;75;21144;-77
2022/04/29 02:15:07;;;;;;;12.55;8.30;;;28.00;92.70;;;;;;1875996;75;21743;-77
2022/04/29 02:17:41;;;;;;;11.55;7.87;;;28.00;92.30;;;;;;1876977;76;21061;-79
2022/04/29 02:20:12;;;;;;;10.38;8.48;;;28.10;92.60;;;;;;1871580;76;21767;-78
2022/04/29 02:22:43;;;;;;;11.80;8.30;;;28.20;92.60;;;;;;1869642;76;21145;-77
2022/04/29 02:25:15;;;;;;;13.62;8.50;;;28.30;92.50;;;;;;1867799;75;21613;-78
2022/04/29 02:27:46;;;;;;;14.35;7.80;;;28.50;91.70;;;;;;1879042;76;22417;-77
2022/04/29 02:30:17;;;;;;;13.60;8.65;;;28.50;92.00;;;;;;1867718;75;21195;-77
2022/04/29 02:32:48;;;;;;;12.50;7.55;;;28.60;91.60;;;;;;1871846;76;21142;-73
2022/04/29 02:35:19;;;;;;;13.58;8.40;;;28.70;91.70;;;;;;1872094;75;21225;-75
2022/04/29 02:37:50;;;;;;;12.25;8.03;;;28.90;91.60;;;;;;1856268;76;21170;-75
2022/04/29 02:40:23;;;;;;;13.93;8.53;;;29.00;91.20;;;;;;1874245;75;21571;-77
2022/04/29 02:42:53;;;;;;;13.25;9.08;;;29.20;91.30;;;;;;1836081;77;21533;-76
2022/04/29 02:45:25;;;;;;;13.00;8.33;;;29.30;91.50;;;;;;1858583;75;21150;-75
2022/04/29 02:47:56;;;;;;;13.35;8.55;;;29.40;90.90;;;;;;1877202;76;21071;-76
2022/04/29 02:50:27;;;;;;;11.22;8.48;;;29.60;90.50;;;;;;1876892;76;21594;-75
2022/04/29 02:52:59;;;;;;;10.30;8.25;;;29.70;90.00;;;;;;1876464;75;21177;-75
2022/04/29 02:55:30;;;;;;;8.63;7.28;;;29.80;88.40;;;;;;1861875;76;21120;-75
2022/04/29 02:58:01;;;;;;;11.10;7.65;;;29.90;87.00;;;;;;1868602;75;21743;-75
2022/04/29 03:00:33;;;;;;;15.50;8.45;;;29.90;86.90;;;;;;1876919;75;21613;-75
2022/04/29 03:03:04;;;;;;;8.55;7.58;;;29.80;86.50;;;;;;1876625;76;21666;-75
2022/04/29 03:05:35;;;;;;;12.10;8.60;;;29.80;86.40;;;;;;1877408;76;21601;-76
2022/04/29 03:08:07;;;;;;;10.68;8.00;;;29.80;86.00;;;;;;1853497;76;21588;-76
2022/04/29 03:10:38;;;;;;;10.43;8.58;;;29.80;84.60;;;;;;1845357;78;21092;-75
2022/04/29 03:13:09;;;;;;;9.20;8.25;;;29.90;84.60;;;;;;1860615;75;21088;-76
2022/04/29 03:15:41;;;;;;;10.23;7.35;;;30.00;85.00;;;;;;1863917;76;21174;-77
2022/04/29 03:18:18;;;;;;;10.32;8.28;;;30.10;83.90;;;;;;1871116;76;21068;-77
2022/04/29 03:20:49;;;;;;;12.63;8.85;;;30.10;84.40;;;;;;1880510;76;21148;-77
2022/04/29 03:23:21;;;;;;;14.55;8.00;;;30.30;83.20;;;;;;1869639;76;21213;-77
2022/04/29 03:25:53;;;;;;;10.63;7.22;;;30.40;81.30;;;;;;1866018;76;21847;-77
2022/04/29 03:28:23;;;;;;;9.50;7.30;;;30.50;80.40;;;;;;1867727;76;21575;-76
2022/04/29 03:30:54;;;;;;;9.68;7.35;;;30.50;80.00;;;;;;1870650;76;21631;-76
2022/04/29 03:33:26;;;;;;;11.03;7.35;;;30.50;80.40;;;;;;1832582;78;21576;-77
2022/04/29 03:35:57;;;;;;;11.93;7.58;;;30.60;80.20;;;;;;1801793;78;21232;-77
2022/04/29 03:38:29;;;;;;;8.68;6.30;;;30.70;80.30;;;;;;1848072;76;21537;-76
2022/04/29 03:41:01;;;;;;;10.03;6.80;;;30.80;80.30;;;;;;1844492;76;21528;-77
2022/04/29 03:43:31;;;;;;;10.95;7.20;;;30.90;78.10;;;;;;1869880;76;21061;-77
2022/04/29 03:46:03;;;;;;;7.05;6.08;;;31.00;78.30;;;;;;1873711;76;21084;-76
2022/04/29 03:51:07;;;;;;;9.28;7.47;;;31.20;77.50;;;;;;1862541;76;21082;-76
2022/04/29 03:53:38;;;;;;;8.15;6.70;;;31.30;78.80;;;;;;1828078;76;21185;-77
2022/04/29 03:56:08;;;;;;;8.60;7.03;;;31.30;77.40;;;;;;1792948;79;21563;-76
2022/04/29 03:58:39;;;;;;;9.43;7.10;;;31.50;78.10;;;;;;1813275;79;21095;-76
2022/04/29 04:01:12;;;;;;;8.75;7.08;;;31.60;76.90;;;;;;1869262;76;21665;-75
2022/04/29 04:03:43;;;;;;;8.65;6.58;;;31.70;76.70;;;;;;1864162;76;21096;-76
2022/04/29 04:08:49;;;;;;;11.75;6.72;;;32.00;76.20;;;;;;1884726;76;21614;-77
2022/04/29 04:11:27;;;;;;;9.68;7.08;;;32.10;74.00;;;;;;1875713;76;21669;-76
2022/04/29 04:14:03;;;;;;;9.45;6.65;;;32.10;75.30;;;;;;1875417;76;21623;-76
2022/04/29 04:16:35;;;;;;;10.90;6.78;;;32.20;74.90;;;;;;1893927;76;21131;-76
2022/04/29 04:19:06;;;;;;;10.18;6.67;;;32.20;74.40;;;;;;1885559;74;21091;-76
2022/04/29 04:21:39;;;;;;;10.25;7.00;;;32.30;74.00;;;;;;1888415;75;21086;-76
2022/04/29 04:24:11;;;;;;;10.10;6.33;;;32.40;73.20;;;;;;1893794;75;21536;-77
2022/04/29 04:26:43;;;;;;;8.58;6.85;;;32.40;72.40;;;;;;1899075;75;21210;-78
2022/04/29 04:29:14;;;;;;;8.83;6.42;;;32.40;73.80;;;;;;1893205;76;21131;-77
2022/04/29 04:31:47;;;;;;;8.93;6.55;;;32.50;72.90;;;;;;1893784;76;21130;-76
2022/04/29 04:36:54;;;;;;;7.53;5.97;;;32.70;71.20;;;;;;1891913;75;21528;-77
2022/04/29 04:39:27;;;;;;;8.95;7.00;;;32.70;69.70;;;;;;1848355;76;21064;-76
2022/04/29 04:41:59;;;;;;;9.05;6.40;;;32.60;71.30;;;;;;1888648;75;21581;-77
2022/04/29 04:44:30;;;;;;;9.03;6.08;;;32.60;71.80;;;;;;1890088;75;21095;-77
2022/04/29 04:47:01;;;;;;;9.20;6.17;;;32.50;72.00;;;;;;1875917;76;21201;-76
2022/04/29 04:49:33;;;;;;;7.80;6.35;;;32.60;70.40;;;;;;1832164;77;21167;-76
2022/04/29 04:52:04;;;;;;;9.43;6.65;;;32.60;70.10;;;;;;1887697;76;21209;-76
2022/04/29 04:54:35;;;;;;;9.33;5.87;;;32.60;71.60;;;;;;1846863;76;21215;-76
2022/04/29 04:57:07;;;;;;;9.00;6.40;;;32.60;71.90;;;;;;1823661;77;21555;-76
2022/04/29 04:59:38;;;;;;;7.97;6.05;;;32.60;71.20;;;;;;1855954;76;21689;-75
2022/04/29 05:02:10;;;;;;;8.58;5.78;;;32.60;69.50;;;;;;1890297;74;21550;-76
2022/04/29 05:04:41;;;;;;;8.60;6.60;;;32.50;71.30;;;;;;1813407;78;21599;-77
2022/04/29 05:07:12;;;;;;;8.73;6.28;;;32.40;71.00;;;;;;1891542;75;21095;-77
2022/04/29 05:09:43;;;;;;;7.95;5.70;;;32.40;72.20;;;;;;1881935;75;21681;-76
2022/04/29 05:12:14;;;;;;;8.43;5.60;;;32.30;69.30;;;;;;1891137;75;21989;-77
2022/04/29 05:14:46;;;;;;;8.58;6.10;;;32.40;69.50;;;;;;1881030;75;21703;-78
2022/04/29 05:17:19;;;;;;;6.55;5.70;;;32.40;70.60;;;;;;1864619;75;21138;-80
2022/04/29 05:19:53;;;;;;;7.65;5.97;;;32.40;70.30;;;;;;1867438;75;21202;-77
2022/04/29 05:22:24;;;;;;;8.15;5.70;;;32.50;71.00;;;;;;1865386;76;21122;-79
2022/04/29 05:24:55;;;;;;;9.53;6.25;;;32.70;70.90;;;;;;1871320;76;21115;-79
2022/04/29 05:27:26;;;;;;;8.15;6.15;;;32.90;71.50;;;;;;1875296;75;21131;-79
2022/04/29 05:29:57;;;;;;;8.40;6.40;;;33.10;68.20;;;;;;1867133;76;21600;-80
2022/04/29 05:32:30;;;;;;;8.55;6.00;;;33.20;68.90;;;;;;1871448;75;21627;-81
2022/04/29 05:35:02;;;;;;;6.90;5.97;;;33.20;69.50;;;;;;1875548;75;21126;-81
2022/04/29 05:37:33;;;;;;;8.08;5.85;;;33.20;68.50;;;;;;1870053;75;21209;-81
2022/04/29 05:42:38;;;;;;;8.78;6.12;;;33.10;67.60;;;;;;1874937;76;21079;-80
2022/04/29 05:45:10;;;;;;;10.63;6.90;;;33.10;67.90;;;;;;1879511;75;21573;-80
2022/04/29 05:47:41;;;;;;;13.25;6.33;;;33.10;67.50;;;;;;1871866;75;21154;-80
2022/04/29 05:50:12;;;;;;;6.80;5.95;;;33.10;68.40;;;;;;1870458;75;21165;-78
2022/04/29 05:52:43;;;;;;;7.35;5.72;;;33.10;68.00;;;;;;1880110;75;21065;-79
2022/04/29 05:55:13;;;;;;;9.08;5.90;;;33.00;68.60;;;;;;1866943;75;21171;-79
2022/04/29 05:57:49;;;;;;;6.50;5.30;;;33.00;68.60;;;;;;1858516;76;21661;-79
2022/04/29 06:00:20;;;;;;;9.25;5.75;;;33.10;68.80;;;;;;1871562;75;22399;-79
2022/04/29 06:02:52;;;;;;;7.00;5.80;;;33.20;67.50;;;;;;1890538;75;21168;-76
2022/04/29 06:05:24;;;;;;;7.05;5.35;;;33.20;68.00;;;;;;1877381;75;21690;-76
2022/04/29 06:07:56;;;;;;;7.70;5.90;;;33.20;67.60;;;;;;1868324;75;21096;-76
2022/04/29 06:10:28;;;;;;;6.87;5.90;;;33.20;66.60;;;;;;1880128;75;21721;-76
2022/04/29 06:12:59;;;;;;;7.92;5.47;;;33.20;67.00;;;;;;1878345;75;21547;-76
2022/04/29 06:15:30;;;;;;;6.83;5.10;;;33.20;66.60;;;;;;1881383;75;21068;-75
2022/04/29 06:18:01;;;;;;;6.47;5.00;;;33.30;66.00;;;;;;1853962;77;21096;-75
2022/04/29 06:20:32;;;;;;;5.62;4.58;;;33.30;65.80;;;;;;1894751;74;21144;-75
2022/04/29 06:23:03;;;;;;;8.45;5.97;;;33.20;65.60;;;;;;1825762;77;21111;-78
2022/04/29 06:25:34;;;;;;;9.55;5.60;;;33.20;67.40;;;;;;1889436;74;21534;-76
2022/04/29 06:28:07;;;;;;;6.85;5.50;;;33.30;67.40;;;;;;1889824;74;21150;-79
2022/04/29 06:30:38;;;;;;;6.22;5.40;;;33.20;66.10;;;;;;1892747;75;21528;-79
2022/04/29 06:33:10;;;;;;;9.45;5.60;;;33.30;66.20;;;;;;1888046;74;21311;-82
2022/04/29 06:35:42;;;;;;;7.70;5.15;;;33.40;65.30;;;;;;1890256;75;21111;-79
2022/04/29 06:38:14;;;;;;;5.45;4.80;;;33.40;61.70;;;;;;1892919;74;21837;-80
2022/04/29 06:40:45;;;;;;;6.25;5.00;;;33.40;61.40;;;;;;1899174;75;21134;-79
2022/04/29 06:43:16;;;;;;;6.20;5.37;;;33.30;63.10;;;;;;1900191;74;21205;-79
2022/04/29 06:45:47;;;;;;;6.05;4.70;;;33.30;62.60;;;;;;1893917;74;21203;-78
2022/04/29 06:48:18;;;;;;;9.23;5.87;;;33.30;62.20;;;;;;1895270;75;21462;-82
2022/04/29 06:50:49;;;;;;;7.90;5.72;;;33.30;63.00;;;;;;1893169;75;21838;-79
2022/04/29 06:53:21;;;;;;;9.23;5.97;;;33.30;62.90;;;;;;1891690;74;21107;-79
2022/04/29 06:55:52;;;;;;;8.98;6.37;;;33.20;64.10;;;;;;1890738;75;21523;-79
2022/04/29 06:58:23;;;;;;;7.72;6.72;;;33.20;64.20;;;;;;1902993;74;21119;-78
2022/04/29 07:00:54;;;;;;;9.73;6.25;;;33.30;65.30;;;;;;1895889;75;22144;-81
2022/04/29 07:03:25;;;;;;;9.38;6.55;;;33.30;65.30;;;;;;1892480;74;21592;-79
2022/04/29 07:05:59;;;;;;;11.28;7.92;;;33.30;65.80;;;;;;1887363;74;21186;-79
2022/04/29 07:08:47;;;;;;;9.43;6.78;;;33.30;64.00;;;;;;1888636;74;21151;-79
2022/04/29 07:11:18;;;;;;;8.25;6.87;;;33.20;64.30;;;;;;1913615;74;21216;-80
2022/04/29 07:13:50;;;;;;;7.97;7.17;;;33.20;64.60;;;;;;1908692;74;21194;-80
2022/04/29 07:16:21;;;;;;;10.05;6.55;;;33.10;64.60;;;;;;1855236;77;21090;-79
2022/04/29 07:18:52;;;;;;;7.90;6.95;;;33.10;65.40;;;;;;1855334;75;21257;-78
2022/04/29 07:21:24;;;;;;;9.20;6.62;;;33.00;63.80;;;;;;1845685;76;21105;-77
2022/04/29 07:23:55;;;;;;;9.93;7.08;;;33.10;65.00;;;;;;1846459;75;21187;-80
2022/04/29 07:26:26;;;;;;;8.75;7.17;;;33.00;65.10;;;;;;1861321;75;21095;-78
2022/04/29 07:28:59;;;;;;;13.25;7.62;;;33.00;64.50;;;;;;1845603;77;21557;-79
2022/04/29 07:31:30;;;;;;;9.15;7.58;;;33.00;65.90;;;;;;1850471;75;21642;-78
2022/04/29 07:34:01;;;;;;;10.25;7.70;;;33.00;66.10;;;;;;1911331;74;21520;-80
2022/04/29 07:41:46;;;;;;;10.65;8.50;;;33.00;66.70;;;;;;1902708;74;21084;-79
2022/04/29 07:44:13;;;;;;;11.73;8.05;;;33.00;66.00;;;;;;1903703;74;21614;-81
2022/04/29 07:46:47;;;;;;;10.58;8.35;;;33.00;65.60;;;;;;1906707;74;21091;-79
2022/04/29 07:49:18;;;;;;;11.80;8.88;;;33.00;65.60;;;;;;1907546;74;21163;-80
2022/04/29 07:51:51;;;;;;;11.60;8.48;;;32.90;66.50;;;;;;1907619;74;21142;-81
2022/04/29 07:54:23;;;;;;;9.45;8.55;;;32.90;66.90;;;;;;1906839;74;21586;-80
2022/04/29 07:56:54;;;;;;;13.08;8.75;;;32.90;66.90;;;;;;1906555;74;21650;-78
2022/04/29 07:59:25;;;;;;;11.20;8.50;;;32.90;66.60;;;;;;1907439;74;21204;-79
2022/04/29 08:01:57;;;;;;;11.18;8.18;;;32.90;66.70;;;;;;1906867;74;21142;-79
2022/04/29 08:04:28;;;;;;;9.03;7.90;;;32.90;66.30;;;;;;1908071;74;21088;-77
2022/04/29 08:06:59;;;;;;;10.38;8.40;;;32.90;67.10;;;;;;1915064;74;21594;-77
2022/04/29 08:09:32;;;;;;;12.55;8.65;;;32.90;67.00;;;;;;1904729;74;21193;-79
2022/04/29 08:12:05;;;;;;;10.13;8.45;;;32.90;66.60;;;;;;1895394;75;21214;-78
2022/04/29 08:14:37;;;;;;;11.00;8.23;;;32.90;67.50;;;;;;1854385;76;21060;-78
2022/04/29 08:17:09;;;;;;;12.53;9.30;;;32.90;67.80;;;;;;1885503;75;21166;-79
2022/04/29 08:19:40;;;;;;;10.85;9.58;;;32.90;68.30;;;;;;1909909;75;21618;-79
2022/04/29 08:22:11;;;;;;;10.10;9.05;;;32.80;67.70;;;;;;1890690;75;21490;-78
2022/04/29 08:24:43;;;;;;;10.25;8.50;;;32.90;66.30;;;;;;1900952;75;21057;-78
2022/04/29 08:27:15;;;;;;;13.80;9.58;;;32.90;66.30;;;;;;1893906;75;21524;-78
2022/04/29 08:29:48;;;;;;;12.73;9.80;;;32.80;66.90;;;;;;1894385;75;21064;-78
2022/04/29 08:32:19;;;;;;;14.25;10.38;;;32.80;67.70;;;;;;1901357;75;21096;-78
2022/04/29 08:34:50;;;;;;;13.60;9.13;;;32.80;68.20;;;;;;1833252;76;21138;-83
2022/04/29 08:37:21;;;;;;;12.60;9.63;;;32.80;68.10;;;;;;1823240;76;21215;-85
2022/04/29 08:39:53;;;;;;;11.33;10.18;;;32.80;68.10;;;;;;1896433;75;21602;-84
2022/04/29 08:42:27;;;;;;;12.10;10.10;;;32.90;68.30;;;;;;1896178;75;21080;-83
2022/04/29 08:44:59;;;;;;;11.60;10.43;;;32.90;68.40;;;;;;1885509;75;21131;-82
2022/04/29 08:47:31;;;;;;;12.50;10.03;;;32.90;68.40;;;;;;1883657;75;21202;-82
2022/04/29 08:50:03;;;;;;;15.75;10.68;;;32.80;68.80;;;;;;1887610;75;21091;-82
2022/04/29 08:52:36;;;;;;;12.75;10.28;;;32.80;69.20;;;;;;1904254;75;21166;-82
2022/04/29 09:00:22;;;;;;;15.70;11.63;;;32.80;70.10;;;;;;1899617;75;21158;-82
2022/04/29 09:02:56;;;;;;;12.73;10.72;;;32.80;70.30;;;;;;1900822;75;21536;-83
2022/04/29 09:05:23;;;;;;;14.58;10.88;;;32.80;71.10;;;;;;1895055;75;21548;-81
2022/04/29 09:08:00;;;;;;;13.65;10.80;;;32.80;70.30;;;;;;1883583;75;21116;-83
2022/04/29 09:10:43;;;;;;;14.65;11.20;;;32.70;70.20;;;;;;1862980;75;21189;-83
2022/04/29 09:13:12;;;;;;;13.62;11.20;;;32.70;70.60;;;;;;1895967;75;21138;-82
2022/04/29 09:15:46;;;;;;;14.70;11.50;;;32.70;70.80;;;;;;1882163;75;21206;-81
2022/04/29 09:18:20;;;;;;;15.90;11.45;;;32.70;70.40;;;;;;1881903;74;21119;-82
2022/04/29 09:20:53;;;;;;;16.48;11.57;;;32.70;70.90;;;;;;1880628;76;21119;-81
2022/04/29 09:23:27;;;;;;;13.05;11.45;;;32.60;71.10;;;;;;1882781;75;21141;-83
2022/04/29 09:26:05;;;;;;;12.88;11.57;;;32.60;71.30;;;;;;1820517;78;21193;-82
2022/04/29 09:28:31;;;;;;;13.38;11.97;;;32.60;70.80;;;;;;1892672;75;21633;-80
2022/04/29 09:31:04;;;;;;;14.33;11.00;;;32.60;70.80;;;;;;1904082;75;21132;-83
2022/04/29 09:33:39;;;;;;;12.63;11.33;;;32.60;71.20;;;;;;1905034;74;21084;-82
2022/04/29 09:36:12;;;;;;;14.55;11.65;;;32.50;71.50;;;;;;1911289;75;21092;-82
2022/04/29 09:41:21;;;;;;;13.88;11.15;;;32.50;71.20;;;;;;1894540;75;21740;-81
2022/04/29 09:43:52;;;;;;;13.98;11.12;;;32.50;71.30;;;;;;1887077;75;21080;-81
2022/04/29 09:46:25;;;;;;;12.25;11.00;;;32.50;71.70;;;;;;1882536;75;21108;-82
2022/04/29 09:48:58;;;;;;;13.00;11.60;;;32.50;72.00;;;;;;1892654;75;21540;-82
2022/04/29 09:51:31;;;;;;;13.08;11.53;;;32.50;72.30;;;;;;1885949;75;21603;-82
2022/04/29 09:54:05;;;;;;;14.45;12.82;;;32.40;72.70;;;;;;1896969;75;21098;-82
2022/04/29 09:56:36;;;;;;;13.78;12.10;;;32.40;72.90;;;;;;1881517;75;21174;-82
2022/04/29 09:59:08;;;;;;;13.88;12.25;;;32.40;73.80;;;;;;1882364;75;21060;-80
2022/04/29 10:01:41;;;;;;;14.60;12.03;;;32.40;73.10;;;;;;1841129;77;21264;-82
2022/04/29 10:04:12;;;;;;;16.75;12.85;;;32.40;73.10;;;;;;1914651;75;21131;-82
2022/04/29 10:06:44;;;;;;;13.43;11.75;;;32.40;73.20;;;;;;1890876;75;21115;-82
2022/04/29 10:09:17;;;;;;;15.63;11.45;;;32.40;73.30;;;;;;1905478;75;21065;-82
2022/04/29 10:11:49;;;;;;;14.53;11.83;;;32.40;73.30;;;;;;1880402;75;21155;-81
2022/04/29 10:14:21;;;;;;;14.30;12.82;;;32.30;73.30;;;;;;1878355;76;21199;-82
2022/04/29 10:22:00;;;;;;;14.75;12.88;;;32.30;73.40;;;;;;1879723;75;21078;-81
2022/04/29 10:24:32;;;;;;;13.85;12.40;;;32.30;73.70;;;;;;1830758;78;21072;-82
2022/04/29 10:27:03;;;;;;;13.35;11.60;;;32.20;74.10;;;;;;1816793;78;21622;-82
2022/04/29 10:29:34;;;;;;;15.88;13.18;;;32.20;74.10;;;;;;1810733;78;21081;-82
2022/04/29 10:32:08;;;;;;;15.48;13.62;;;32.20;73.80;;;;;;1840467;78;21575;-82
2022/04/29 10:34:39;;;;;;;19.70;13.25;;;32.20;73.80;;;;;;1836842;77;21207;-82
2022/04/29 10:37:15;;;;;;;15.85;12.98;;;32.20;73.10;;;;;;1819507;77;21620;-82
2022/04/29 10:39:48;;;;;;;15.45;12.07;;;32.10;72.70;;;;;;1824324;78;21084;-81
2022/04/29 10:42:19;;;;;;;14.43;12.37;;;32.10;73.00;;;;;;1822592;78;21163;-82
2022/04/29 10:44:53;;;;;;;16.07;12.98;;;32.10;73.30;;;;;;1821226;78;21153;-81
2022/04/29 10:50:00;;;;;;;14.70;12.50;;;32.00;72.90;;;;;;1838533;77;21199;-82
2022/04/29 10:52:31;;;;;;;15.32;12.75;;;32.00;73.70;;;;;;1818522;78;21178;-82
2022/04/29 10:55:04;;;;;;;16.23;12.30;;;32.00;72.80;;;;;;1806206;78;21195;-82
2022/04/29 10:57:37;;;;;;;15.28;13.05;;;32.00;73.00;;;;;;1847510;77;21077;-82
2022/04/29 11:00:11;;;;;;;14.78;12.37;;;32.00;73.30;;;;;;1838540;78;21116;-81
2022/04/29 11:02:44;;;;;;;18.65;13.50;;;32.00;73.40;;;;;;1809769;78;21199;-82
2022/04/29 11:05:17;;;;;;;15.65;12.50;;;31.90;73.70;;;;;;1809815;78;21106;-82
2022/04/29 11:07:50;;;;;;;20.05;13.60;;;31.90;73.90;;;;;;1805401;78;21097;-83
2022/04/29 11:10:24;;;;;;;15.60;13.08;;;31.90;74.10;;;;;;1834538;78;21544;-82
2022/04/29 11:12:58;;;;;;;15.93;12.23;;;31.80;74.00;;;;;;1848251;77;21104;-83
2022/04/29 11:15:31;;;;;;;14.93;12.18;;;31.80;74.50;;;;;;1884645;75;21151;-81
2022/04/29 11:18:04;;;;;;;15.95;13.40;;;31.80;74.60;;;;;;1881247;75;21611;-80
2022/04/29 11:20:37;;;;;;;15.00;12.68;;;31.80;74.70;;;;;;1891420;75;21487;-81
2022/04/29 11:25:45;;;;;;;16.05;13.78;;;31.80;75.00;;;;;;1842567;76;21096;-83
2022/04/29 11:28:16;;;;;;;14.33;12.88;;;31.70;75.10;;;;;;1849438;76;21111;-82
2022/04/29 11:30:49;;;;;;;14.40;12.90;;;31.70;75.20;;;;;;1824938;76;21152;-83
2022/04/29 11:33:23;;;;;;;17.87;13.83;;;31.70;75.30;;;;;;1894659;75;21617;-81
2022/04/29 11:35:59;;;;;;;14.70;13.15;;;31.70;75.50;;;;;;1901162;75;21084;-82
2022/04/29 11:38:32;;;;;;;15.70;13.20;;;31.70;75.80;;;;;;1883514;75;21143;-83
2022/04/29 11:41:03;;;;;;;16.73;12.28;;;31.60;76.00;;;;;;1882410;75;21142;-82
2022/04/29 11:43:34;;;;;;;14.87;13.38;;;31.60;76.00;;;;;;1825253;78;21115;-83
2022/04/29 11:46:09;;;;;;;14.90;13.30;;;31.60;77.10;;;;;;1882375;76;21084;-81
2022/04/29 11:48:40;;;;;;;14.65;13.15;;;31.50;76.20;;;;;;1882458;75;21115;-83
2022/04/29 11:51:18;;;;;;;18.17;15.90;;;31.60;76.50;;;;;;1894860;75;21088;-82
2022/04/29 11:53:51;;;;;;;17.55;15.72;;;31.60;77.40;;;;;;1900651;74;21068;-81
2022/04/29 11:56:23;;;;;;;18.30;16.20;;;31.50;76.60;;;;;;1898772;75;21144;-81
2022/04/29 11:58:54;;;;;;;20.35;15.63;;;31.50;76.90;;;;;;1884520;75;21210;-83
2022/04/29 12:01:28;;;;;;;16.60;14.58;;;31.50;76.90;;;;;;1894662;75;21084;-81
2022/04/29 12:04:00;;;;;;;17.05;13.08;;;31.50;77.20;;;;;;1884245;75;21213;-81
2022/04/29 12:06:38;;;;;;;16.32;13.93;;;31.50;77.10;;;;;;1899309;75;21161;-83
2022/04/29 12:09:04;;;;;;;30.30;23.42;;;31.40;77.20;;;;;;1825153;76;21206;-82
2022/04/29 12:11:37;;;;;;;20.97;16.70;;;31.40;78.30;;;;;;1889410;75;21154;-81
2022/04/29 12:14:10;;;;;;;19.60;14.00;;;31.40;77.20;;;;;;1899755;75;22167;-82
2022/04/29 12:16:43;;;;;;;16.50;14.05;;;31.40;77.40;;;;;;1886795;75;21208;-81
2022/04/29 12:19:17;;;;;;;25.17;20.02;;;31.40;77.60;;;;;;1886759;75;21100;-83
2022/04/29 12:21:50;;;;;;;21.48;17.55;;;31.40;77.60;;;;;;1884190;75;21068;-82
2022/04/29 12:24:22;;;;;;;16.62;13.15;;;31.40;77.60;;;;;;1901663;74;21166;-82
2022/04/29 12:26:58;;;;;;;19.52;14.40;;;31.40;77.50;;;;;;1888678;75;21092;-82
2022/04/29 12:29:31;;;;;;;16.05;13.75;;;31.40;77.70;;;;;;1894257;75;21061;-81
2022/04/29 12:34:48;;;;;;;16.93;13.72;;;31.30;77.90;;;;;;1888749;75;21102;-82
2022/04/29 12:37:20;;;;;;;17.20;14.35;;;31.30;77.40;;;;;;1883389;75;21220;-82
2022/04/29 12:39:51;;;;;;;18.15;14.00;;;31.30;77.70;;;;;;1897786;75;21080;-80
2022/04/29 12:42:24;;;;;;;16.07;13.28;;;31.30;77.90;;;;;;1839611;76;21187;-81
2022/04/29 12:45:44;;;;;;;16.73;13.05;;;31.30;77.90;;;;;;1884365;75;21583;-81
2022/04/29 12:47:39;;;;;;;16.45;13.55;;;31.30;77.80;;;;;;1858731;75;21248;-81
2022/04/29 12:50:12;;;;;;;14.45;12.68;;;31.30;77.80;;;;;;1900998;75;21116;-82
2022/04/29 12:52:46;;;;;;;17.75;14.73;;;31.30;77.90;;;;;;1890749;75;21198;-81
2022/04/29 12:55:18;;;;;;;18.62;14.83;;;31.30;78.20;;;;;;1891918;75;21203;-81
2022/04/29 12:57:49;;;;;;;18.42;13.95;;;31.30;78.00;;;;;;1890001;75;21151;-82
2022/04/29 13:00:23;;;;;;;16.57;13.75;;;31.30;77.80;;;;;;1910785;75;21146;-82
2022/04/29 13:02:56;;;;;;;17.82;13.40;;;31.30;78.00;;;;;;1887049;75;21109;-82
2022/04/29 13:05:40;;;;;;;18.75;13.30;;;31.30;78.10;;;;;;1896284;75;21215;-81
2022/04/29 13:08:33;;;;;;;16.80;13.88;;;31.30;78.20;;;;;;1883928;74;21083;-82
2022/04/29 13:11:17;;;;;;;17.15;13.25;;;31.30;78.10;;;;;;1893267;75;21136;-83
2022/04/29 13:13:48;;;;;;;15.45;13.22;;;31.30;78.20;;;;;;1896139;74;21143;-82
2022/04/29 13:16:22;;;;;;;16.37;12.95;;;31.30;78.40;;;;;;1894142;75;21057;-80
2022/04/29 13:18:58;;;;;;;18.12;14.10;;;31.20;78.50;;;;;;1890068;75;21636;-81
2022/04/29 13:21:26;;;;;;;15.43;13.22;;;31.30;78.70;;;;;;1860036;76;21124;-82
2022/04/29 13:23:57;;;;;;;17.12;14.28;;;31.20;78.70;;;;;;1889310;75;21172;-81
2022/04/29 13:26:29;;;;;;;15.18;13.60;;;31.20;78.80;;;;;;1891256;75;21131;-81
2022/04/29 13:29:00;;;;;;;16.07;13.13;;;31.20;78.80;;;;;;1894247;75;21100;-81
2022/04/29 13:31:31;;;;;;;17.30;14.15;;;31.20;78.80;;;;;;1898662;75;21130;-83
2022/04/29 13:34:02;;;;;;;18.35;15.70;;;31.20;79.00;;;;;;1897228;75;21142;-81
2022/04/29 13:36:35;;;;;;;19.27;14.53;;;31.20;78.70;;;;;;1899935;75;21173;-82